Time;durP1;ratioP1;P1;durP2;ratioP2;P2;SDS_P1;SDS_P2;PMS_P1;PMS_P2;Temp;Humidity;BMP_temperature;BMP_pressure;BME280_temperature;BME280_humidity;BME280_pressure;Samples;Min_cycle;Max_cycle;Signal;HPM_P1;HPM_P2
2024/02/24 00:01:02;;;;;;;4.83;1.90;;;;;;;3.54;72.87;93760.38;5016584;28;20532;-77
2024/02/24 00:03:28;;;;;;;3.77;1.90;;;;;;;3.51;72.89;93755.53;5024196;28;20233;-77
2024/02/24 00:05:53;;;;;;;4.27;1.83;;;;;;;3.42;73.17;93763.16;5015153;28;20192;-78
2024/02/24 00:08:18;;;;;;;3.93;1.47;;;;;;;3.38;72.88;93749.03;5018832;28;20208;-78
2024/02/24 00:10:44;;;;;;;3.80;1.90;;;;;;;3.28;73.08;93757.75;5003491;28;20183;-78
2024/02/24 00:13:09;;;;;;;3.87;2.03;;;;;;;3.20;73.99;93757.69;5017189;28;20711;-78
2024/02/24 00:15:34;;;;;;;4.43;1.80;;;;;;;3.16;74.18;93749.44;5004936;28;20183;-78
2024/02/24 00:18:00;;;;;;;2.27;1.77;;;;;;;3.14;73.88;93748.81;5011663;28;20273;-78
2024/02/24 00:20:25;;;;;;;4.10;2.20;;;;;;;3.08;74.68;93750.19;5015364;28;20175;-77
2024/02/24 00:22:50;;;;;;;3.53;1.80;;;;;;;3.09;74.62;93753.56;4997895;28;20229;-78
2024/02/24 00:25:16;;;;;;;5.90;1.70;;;;;;;3.07;75.61;93755.47;5003287;28;20553;-78
2024/02/24 00:27:41;;;;;;;4.37;1.60;;;;;;;3.17;75.22;93765.66;5013851;28;20669;-78
2024/02/24 00:30:07;;;;;;;3.87;1.50;;;;;;;3.09;76.34;93762.06;5008934;28;20278;-78
2024/02/24 00:32:33;;;;;;;3.20;1.47;;;;;;;3.19;76.23;93771.47;5014435;28;20298;-78
2024/02/24 00:34:58;;;;;;;2.37;1.60;;;;;;;3.19;75.78;93771.47;5005307;28;20289;-78
2024/02/24 00:37:23;;;;;;;6.37;1.60;;;;;;;3.20;76.00;93781.56;5017506;28;20272;-78
2024/02/24 00:39:50;;;;;;;3.93;1.53;;;;;;;3.10;76.40;93771.38;5006771;28;20193;-77
2024/02/24 00:42:16;;;;;;;3.37;1.73;;;;;;;3.25;76.28;93773.41;5010044;28;20182;-78
2024/02/24 00:44:41;;;;;;;5.57;2.07;;;;;;;3.16;76.52;93769.16;5003868;28;20207;-78
2024/02/24 00:47:06;;;;;;;5.27;1.80;;;;;;;3.15;76.85;93775.25;5001530;28;20189;-78
2024/02/24 00:49:32;;;;;;;5.37;2.20;;;;;;;3.10;76.61;93775.72;5008246;28;20175;-77
2024/02/24 00:51:57;;;;;;;4.20;1.83;;;;;;;3.09;76.47;93767.22;5003620;28;20253;-77
2024/02/24 00:54:22;;;;;;;5.00;2.13;;;;;;;3.02;77.33;93776.44;5013537;28;20782;-77
2024/02/24 00:56:47;;;;;;;3.60;1.80;;;;;;;2.94;77.26;93773.78;5019128;28;20199;-78
2024/02/24 00:59:13;;;;;;;3.93;2.00;;;;;;;2.95;76.96;93772.81;5014622;28;20184;-78
2024/02/24 01:01:39;;;;;;;3.10;1.47;;;;;;;3.08;76.81;93782.72;5017189;28;20183;-77
2024/02/24 01:04:04;;;;;;;3.60;1.80;;;;;;;3.00;78.09;93787.75;5004907;28;20204;-76
2024/02/24 01:06:29;;;;;;;3.47;1.30;;;;;;;2.88;78.74;93791.50;5018267;28;20212;-77
2024/02/24 01:08:55;;;;;;;4.03;1.77;;;;;;;3.08;78.05;93788.66;5018222;28;20193;-77
2024/02/24 01:11:20;;;;;;;3.93;1.43;;;;;;;3.24;77.29;93792.34;5016725;28;20250;-77
2024/02/24 01:13:45;;;;;;;2.83;1.67;;;;;;;3.34;76.98;93793.06;5022393;28;20255;-77
2024/02/24 01:16:11;;;;;;;5.27;1.70;;;;;;;3.40;76.95;93793.28;5026764;28;20225;-78
2024/02/24 01:18:36;;;;;;;2.97;1.43;;;;;;;3.48;76.74;93792.56;5008704;28;20186;-77
2024/02/24 01:21:02;;;;;;;4.83;1.80;;;;;;;3.48;76.22;93796.88;5022929;28;20198;-77
2024/02/24 01:23:27;;;;;;;2.20;1.47;;;;;;;3.52;76.23;93799.00;5007541;28;20665;-77
2024/02/24 01:25:53;;;;;;;5.40;1.63;;;;;;;3.60;75.96;93805.97;5003551;28;20190;-77
2024/02/24 01:28:18;;;;;;;3.83;1.90;;;;;;;3.41;76.44;93810.28;5019344;28;20212;-77
2024/02/24 01:30:43;;;;;;;2.90;1.67;;;;;;;3.48;77.21;93815.66;5019274;28;20276;-78
2024/02/24 01:33:09;;;;;;;3.20;1.67;;;;;;;3.54;77.24;93824.53;5001792;28;20209;-77
2024/02/24 01:35:35;;;;;;;5.63;1.70;;;;;;;3.39;78.88;93808.84;5000864;28;20237;-76
2024/02/24 01:38:01;;;;;;;1.73;1.20;;;;;;;3.22;81.45;93815.56;5019314;28;20184;-77
2024/02/24 01:40:26;;;;;;;2.90;1.27;;;;;;;3.44;81.39;93810.94;5010031;28;20193;-77
2024/02/24 01:42:52;;;;;;;2.03;1.17;;;;;;;3.62;81.00;93817.72;5015225;28;20256;-77
2024/02/24 01:45:17;;;;;;;1.77;1.00;;;;;;;3.57;81.69;93811.41;5007074;28;20592;-78
2024/02/24 01:47:43;;;;;;;3.83;1.10;;;;;;;3.52;81.82;93819.53;5004957;28;20640;-77
2024/02/24 01:50:12;;;;;;;3.77;1.13;;;;;;;3.70;81.03;93814.38;5023416;28;20237;-77
2024/02/24 01:52:40;;;;;;;2.80;1.30;;;;;;;3.62;81.99;93806.63;5017719;28;20210;-77
2024/02/24 01:55:07;;;;;;;2.33;1.50;;;;;;;3.61;81.42;93805.81;5018048;28;20260;-77
2024/02/24 01:57:37;;;;;;;3.57;1.70;;;;;;;3.60;81.94;93811.91;5019245;28;20183;-76
2024/02/24 02:00:03;;;;;;;3.73;1.30;;;;;;;3.62;81.02;93804.88;5021877;28;20277;-78
2024/02/24 02:02:28;;;;;;;1.40;0.97;;;;;;;3.57;80.68;93801.13;5010954;28;20277;-77
2024/02/24 02:04:54;;;;;;;2.43;1.20;;;;;;;3.58;80.83;93797.63;5020118;28;20241;-76
2024/02/24 02:07:19;;;;;;;2.17;1.20;;;;;;;3.49;80.46;93793.38;5011524;28;20297;-77
2024/02/24 02:10:11;;;;;;;3.00;1.20;;;;;;;3.47;80.09;93796.09;5018007;28;20732;-78
2024/02/24 02:12:36;;;;;;;1.97;1.27;;;;;;;3.32;81.09;93792.41;5020046;28;20214;-79
2024/02/24 02:15:03;;;;;;;1.97;1.33;;;;;;;3.24;81.32;93790.56;5024685;28;20715;-77
2024/02/24 02:17:29;;;;;;;3.17;1.23;;;;;;;3.08;82.65;93788.66;5015862;28;20183;-78
2024/02/24 02:19:59;;;;;;;2.13;1.10;;;;;;;3.04;82.67;93789.91;5008840;28;20725;-76
2024/02/24 02:22:25;;;;;;;2.13;1.40;;;;;;;2.78;84.64;93797.47;5018907;28;20246;-78
2024/02/24 02:24:50;;;;;;;3.07;1.10;;;;;;;2.85;84.27;93800.28;5022002;28;20238;-80
2024/02/24 02:27:16;;;;;;;1.70;1.30;;;;;;;2.80;84.91;93797.34;5003510;28;20193;-77
2024/02/24 02:29:41;;;;;;;3.03;1.37;;;;;;;2.71;85.24;93809.25;5002627;28;20253;-79
2024/02/24 02:32:07;;;;;;;2.50;1.50;;;;;;;2.84;84.17;93807.16;5000262;28;20263;-77
2024/02/24 02:34:33;;;;;;;2.80;1.33;;;;;;;2.70;84.63;93817.88;5020212;28;20214;-77
2024/02/24 02:36:58;;;;;;;2.10;1.23;;;;;;;2.87;83.89;93818.88;5001040;28;20202;-77
2024/02/24 02:39:24;;;;;;;1.60;1.30;;;;;;;2.84;83.93;93819.19;5003768;28;20187;-76
2024/02/24 02:41:50;;;;;;;3.80;1.47;;;;;;;2.80;84.36;93810.16;5000385;28;20672;-76
2024/02/24 02:44:15;;;;;;;4.70;1.50;;;;;;;2.78;84.31;93810.28;5015526;28;20277;-77
2024/02/24 02:46:48;;;;;;;1.80;1.30;;;;;;;2.80;84.31;93815.28;5015685;28;20307;-77
2024/02/24 02:49:16;;;;;;;2.70;1.73;;;;;;;2.76;84.99;93807.06;5012697;28;20270;-77
2024/02/24 02:51:42;;;;;;;2.60;1.30;;;;;;;2.65;85.44;93809.84;5010231;28;20194;-78
2024/02/24 02:54:07;;;;;;;2.40;1.53;;;;;;;2.58;85.92;93807.97;5014865;28;20648;-76
2024/02/24 02:56:32;;;;;;;2.90;1.60;;;;;;;2.67;85.89;93814.81;5013650;28;20190;-79
2024/02/24 02:58:58;;;;;;;4.23;1.60;;;;;;;2.40;87.67;93798.47;5019528;28;20269;-78
2024/02/24 03:01:23;;;;;;;1.97;1.40;;;;;;;2.66;86.32;93792.69;5015743;28;20187;-80
2024/02/24 03:03:49;;;;;;;1.33;1.20;;;;;;;2.84;85.54;93791.78;4999956;28;20198;-80
2024/02/24 03:06:14;;;;;;;1.90;1.40;;;;;;;2.83;85.61;93792.75;5016657;28;20182;-79
2024/02/24 03:08:40;;;;;;;3.53;1.30;;;;;;;2.83;85.07;93794.50;5016664;28;20605;-76
2024/02/24 03:11:13;;;;;;;2.80;1.63;;;;;;;2.91;84.89;93774.03;5015569;28;20210;-78
2024/02/24 03:13:39;;;;;;;3.27;1.60;;;;;;;2.70;84.90;93788.88;5020583;28;20219;-77
2024/02/24 03:16:04;;;;;;;3.33;1.67;;;;;;;2.74;86.10;93787.63;5020477;28;20297;-78
2024/02/24 03:18:29;;;;;;;2.83;1.60;;;;;;;2.70;86.04;93796.56;5015527;28;20275;-77
2024/02/24 03:20:55;;;;;;;2.77;1.33;;;;;;;2.60;86.50;93800.94;4996791;28;20208;-77
2024/02/24 03:23:21;;;;;;;4.53;1.67;;;;;;;2.78;85.46;93802.59;5023525;28;20205;-77
2024/02/24 03:25:46;;;;;;;2.50;1.47;;;;;;;2.82;84.80;93800.53;5002233;28;20193;-77
2024/02/24 03:28:11;;;;;;;2.17;1.80;;;;;;;2.72;85.62;93803.16;5008093;28;20577;-78
2024/02/24 03:30:36;;;;;;;2.53;1.33;;;;;;;2.73;84.92;93812.47;5008006;28;20190;-78
2024/02/24 03:33:02;;;;;;;1.93;1.73;;;;;;;2.74;84.37;93800.47;5001186;28;20302;-78
2024/02/24 03:35:28;;;;;;;4.20;1.50;;;;;;;2.64;85.04;93800.50;5009430;28;20186;-78
2024/02/24 03:37:53;;;;;;;4.30;1.27;;;;;;;2.65;85.14;93804.72;5001795;28;20334;-79
2024/02/24 03:40:18;;;;;;;3.07;1.53;;;;;;;2.71;84.38;93798.19;5019965;28;20244;-77
2024/02/24 03:42:44;;;;;;;2.07;1.27;;;;;;;2.66;84.83;93801.19;4985555;28;20184;-78
2024/02/24 03:45:10;;;;;;;2.53;1.10;;;;;;;2.56;85.25;93810.66;5001284;28;20234;-78
2024/02/24 03:47:35;;;;;;;2.10;1.30;;;;;;;2.45;86.00;93811.66;5016884;28;20171;-78
2024/02/24 03:50:00;;;;;;;2.43;1.40;;;;;;;2.47;86.41;93812.34;5022613;28;20217;-78
2024/02/24 03:52:25;;;;;;;1.40;1.30;;;;;;;2.45;85.79;93816.78;5013728;28;20218;-78
2024/02/24 03:54:51;;;;;;;1.57;1.23;;;;;;;2.47;85.31;93817.47;4999528;28;20271;-78
2024/02/24 03:57:16;;;;;;;1.50;1.30;;;;;;;2.34;86.54;93816.97;5019015;28;20182;-78
2024/02/24 03:59:41;;;;;;;2.33;1.40;;;;;;;2.38;86.77;93825.16;5005530;28;20191;-78
2024/02/24 04:02:07;;;;;;;1.60;1.27;;;;;;;2.34;86.56;93818.72;5010922;28;20179;-78
2024/02/24 04:04:32;;;;;;;3.83;1.20;;;;;;;2.46;86.19;93813.25;5000057;28;20221;-78
2024/02/24 04:06:57;;;;;;;2.50;1.10;;;;;;;2.26;86.44;93825.34;5006715;28;20206;-78
2024/02/24 04:09:23;;;;;;;3.03;1.50;;;;;;;2.31;87.53;93824.13;5017102;28;20193;-77
2024/02/24 04:11:50;;;;;;;3.77;1.30;;;;;;;2.29;87.76;93819.13;5014412;28;20179;-78
2024/02/24 04:14:16;;;;;;;1.33;1.10;;;;;;;2.44;86.69;93822.03;5015374;28;20219;-78
2024/02/24 04:16:41;;;;;;;1.37;1.10;;;;;;;2.51;86.78;93829.03;5014036;28;20856;-78
2024/02/24 04:19:06;;;;;;;1.63;1.00;;;;;;;2.49;85.87;93830.94;5002319;28;20187;-78
2024/02/24 04:21:32;;;;;;;1.13;1.03;;;;;;;2.42;86.99;93840.13;5007985;28;20194;-78
2024/02/24 04:23:57;;;;;;;1.50;1.10;;;;;;;2.55;85.89;93825.22;5007164;28;20268;-77
2024/02/24 04:26:22;;;;;;;1.90;1.33;;;;;;;2.53;85.80;93837.38;5022819;28;20178;-78
2024/02/24 04:28:48;;;;;;;1.67;1.03;;;;;;;2.54;86.17;93835.63;5010889;28;20201;-77
2024/02/24 04:31:13;;;;;;;1.63;1.10;;;;;;;2.49;86.44;93850.63;5019870;28;20191;-78
2024/02/24 04:33:38;;;;;;;1.80;1.27;;;;;;;2.50;86.12;93855.59;5021004;28;20238;-78
2024/02/24 04:36:04;;;;;;;0.83;0.80;;;;;;;2.41;86.77;93851.31;5003100;28;20597;-77
2024/02/24 04:38:29;;;;;;;1.53;1.07;;;;;;;2.40;86.81;93859.97;5020624;28;20191;-76
2024/02/24 04:40:55;;;;;;;1.27;0.93;;;;;;;2.54;85.76;93858.69;5006524;28;20226;-76
2024/02/24 04:43:20;;;;;;;1.50;1.10;;;;;;;2.53;85.84;93857.88;5010164;28;20194;-78
2024/02/24 04:45:45;;;;;;;1.10;1.00;;;;;;;2.44;84.99;93863.84;5018337;28;20668;-77
2024/02/24 04:48:11;;;;;;;1.70;1.00;;;;;;;2.46;86.28;93864.50;5021936;28;20218;-78
2024/02/24 04:50:36;;;;;;;1.43;0.80;;;;;;;2.43;86.05;93863.97;5022990;28;20191;-78
2024/02/24 04:53:01;;;;;;;0.73;0.73;;;;;;;2.43;86.08;93866.53;5014591;28;20202;-78
2024/02/24 04:55:27;;;;;;;2.57;0.90;;;;;;;2.42;87.32;93859.81;5011665;28;20178;-78
2024/02/24 04:57:52;;;;;;;1.40;0.77;;;;;;;2.64;84.96;93862.00;5019286;28;20189;-78
2024/02/24 05:00:18;;;;;;;0.80;0.70;;;;;;;2.54;85.53;93877.44;5022807;28;20185;-77
2024/02/24 05:02:43;;;;;;;1.47;0.90;;;;;;;2.53;86.11;93878.38;5000268;28;20176;-79
2024/02/24 05:05:11;;;;;;;0.80;0.80;;;;;;;2.63;85.72;93880.09;5022598;28;20203;-78
2024/02/24 05:07:36;;;;;;;1.30;0.80;;;;;;;2.59;86.20;93873.66;5018277;28;20274;-79
2024/02/24 05:10:02;;;;;;;0.80;0.80;;;;;;;2.72;85.54;93871.56;5012639;28;20194;-79
2024/02/24 05:12:27;;;;;;;1.10;1.00;;;;;;;2.43;87.35;93880.16;5022917;28;20764;-79
2024/02/24 05:14:52;;;;;;;1.97;0.80;;;;;;;2.60;86.83;93880.38;5013755;28;20298;-77
2024/02/24 05:17:18;;;;;;;0.93;0.87;;;;;;;2.58;86.61;93870.28;5005401;28;20277;-79
2024/02/24 05:19:43;;;;;;;0.83;0.80;;;;;;;2.79;85.56;93870.06;5017724;28;20321;-78
2024/02/24 05:22:08;;;;;;;0.97;0.70;;;;;;;2.80;85.63;93863.97;4999788;28;20687;-78
2024/02/24 05:24:34;;;;;;;1.23;0.90;;;;;;;2.68;86.81;93852.31;5006349;28;20195;-79
2024/02/24 05:26:59;;;;;;;1.37;1.03;;;;;;;2.80;86.26;93846.03;5003190;28;20194;-79
2024/02/24 05:29:24;;;;;;;0.90;0.80;;;;;;;2.86;85.34;93854.94;5014007;28;20702;-78
2024/02/24 05:31:50;;;;;;;1.30;0.87;;;;;;;2.71;86.69;93857.94;5005085;28;20191;-79
2024/02/24 05:34:15;;;;;;;0.97;0.80;;;;;;;2.88;86.09;93866.66;5020669;28;20229;-78
2024/02/24 05:36:40;;;;;;;0.90;0.60;;;;;;;2.88;86.35;93864.09;5001972;28;20198;-79
2024/02/24 05:39:06;;;;;;;1.07;0.70;;;;;;;2.87;86.63;93859.91;5020401;28;20566;-80
2024/02/24 05:41:32;;;;;;;1.20;0.80;;;;;;;2.85;86.80;93866.94;5019527;28;20719;-79
2024/02/24 05:43:57;;;;;;;0.73;0.73;;;;;;;3.00;86.18;93868.06;5016377;28;20998;-78
2024/02/24 05:46:23;;;;;;;0.90;0.60;;;;;;;3.04;85.93;93868.59;5016181;28;20187;-78
2024/02/24 05:48:48;;;;;;;1.30;1.00;;;;;;;2.93;85.85;93874.72;5022660;28;20615;-79
2024/02/24 05:51:16;;;;;;;2.13;0.93;;;;;;;2.99;85.77;93871.56;5026842;28;20198;-78
2024/02/24 05:53:41;;;;;;;2.63;0.70;;;;;;;3.02;85.60;93883.31;4997474;28;20215;-78
2024/02/24 05:56:06;;;;;;;0.60;0.60;;;;;;;2.89;86.70;93888.75;5008539;28;20178;-78
2024/02/24 05:58:32;;;;;;;0.83;0.83;;;;;;;2.72;87.26;93890.31;5009800;28;20566;-78
2024/02/24 06:00:57;;;;;;;2.40;1.20;;;;;;;2.91;86.59;93893.75;5019231;28;20627;-77
2024/02/24 06:03:22;;;;;;;1.53;1.10;;;;;;;2.88;86.48;93896.59;5016824;28;20198;-78
2024/02/24 06:05:48;;;;;;;1.50;0.90;;;;;;;2.71;88.28;93900.72;5019919;28;20218;-79
2024/02/24 06:08:14;;;;;;;1.23;1.13;;;;;;;2.68;88.04;93903.56;5003718;28;20692;-80
2024/02/24 06:10:39;;;;;;;0.70;0.70;;;;;;;2.78;87.34;93894.88;5007933;28;20318;-78
2024/02/24 06:13:05;;;;;;;1.87;0.80;;;;;;;2.90;87.40;93905.75;5019697;28;20237;-78
2024/02/24 06:15:31;;;;;;;1.10;0.77;;;;;;;2.99;86.29;93901.53;5023339;28;20187;-76
2024/02/24 06:17:56;;;;;;;0.90;0.90;;;;;;;2.95;85.77;93906.16;5019105;28;20671;-78
2024/02/24 06:20:21;;;;;;;0.87;0.87;;;;;;;3.02;86.31;93914.09;5002735;28;20195;-77
2024/02/24 06:22:48;;;;;;;1.23;1.07;;;;;;;2.78;87.23;93917.16;5021913;28;20651;-78
2024/02/24 06:25:13;;;;;;;1.17;0.80;;;;;;;2.92;85.97;93910.78;5019430;28;20692;-80
2024/02/24 06:27:39;;;;;;;0.83;0.73;;;;;;;2.93;86.92;93915.75;5009641;28;20227;-77
2024/02/24 06:30:05;;;;;;;1.00;0.90;;;;;;;2.87;87.50;93916.31;5017548;28;20178;-79
2024/02/24 06:32:30;;;;;;;1.40;1.30;;;;;;;2.83;88.05;93915.00;5017266;28;20640;-79
2024/02/24 06:34:56;;;;;;;1.87;1.10;;;;;;;2.90;87.65;93915.22;5001045;28;20194;-79
2024/02/24 06:37:21;;;;;;;1.70;1.10;;;;;;;2.67;88.42;93918.13;5018448;28;20187;-80
2024/02/24 06:39:46;;;;;;;1.37;1.10;;;;;;;2.75;88.23;93918.25;5011261;28;20202;-80
2024/02/24 06:42:12;;;;;;;1.33;1.23;;;;;;;2.81;88.59;93917.66;5016290;28;20183;-80
2024/02/24 06:44:37;;;;;;;1.20;1.10;;;;;;;2.77;88.90;93920.66;5017675;28;20544;-79
2024/02/24 06:47:03;;;;;;;1.30;1.17;;;;;;;2.85;88.48;93923.34;5000706;28;20187;-80
2024/02/24 06:49:28;;;;;;;2.47;1.60;;;;;;;2.90;87.76;93922.91;5021267;28;20676;-80
2024/02/24 06:51:54;;;;;;;1.63;1.23;;;;;;;2.93;87.95;93936.28;5017361;28;20293;-80
2024/02/24 06:54:19;;;;;;;3.00;1.40;;;;;;;2.79;89.15;93940.06;5000365;28;20243;-79
2024/02/24 06:56:44;;;;;;;3.80;1.80;;;;;;;2.90;88.70;93944.22;5015179;28;20187;-79
2024/02/24 06:59:10;;;;;;;1.40;1.30;;;;;;;3.02;88.24;93961.06;5018272;28;20180;-79
2024/02/24 07:01:35;;;;;;;4.40;1.80;;;;;;;2.83;88.94;93961.13;5010451;28;20199;-77
2024/02/24 07:04:01;;;;;;;1.80;1.60;;;;;;;3.06;87.71;93977.78;5006171;28;20659;-78
2024/02/24 07:06:26;;;;;;;2.27;2.03;;;;;;;2.99;87.13;93986.97;5016337;28;20183;-78
2024/02/24 07:08:52;;;;;;;2.23;1.97;;;;;;;3.19;87.03;93990.31;5018665;28;20241;-78
2024/02/24 07:11:17;;;;;;;1.90;1.70;;;;;;;3.04;87.37;93994.25;5002110;28;20187;-78
2024/02/24 07:13:42;;;;;;;3.33;1.60;;;;;;;3.21;86.82;94003.78;5019575;28;20696;-78
2024/02/24 07:16:11;;;;;;;3.10;1.47;;;;;;;3.02;87.50;94004.66;5020191;28;20203;-78
2024/02/24 07:18:37;;;;;;;2.23;1.40;;;;;;;3.16;87.32;94013.66;5009157;28;20186;-77
2024/02/24 07:21:02;;;;;;;1.90;1.47;;;;;;;3.11;87.41;94016.66;5002883;28;20667;-78
2024/02/24 07:23:28;;;;;;;1.30;1.20;;;;;;;3.23;87.33;94026.72;5018256;28;20217;-77
2024/02/24 07:25:53;;;;;;;1.57;1.47;;;;;;;3.21;86.90;94031.19;5002734;28;20236;-78
2024/02/24 07:28:19;;;;;;;1.37;1.20;;;;;;;3.29;86.56;94033.88;5006725;28;20240;-78
2024/02/24 07:30:44;;;;;;;4.30;1.93;;;;;;;3.36;86.30;94040.06;5011467;28;20194;-78
2024/02/24 07:33:09;;;;;;;1.83;1.40;;;;;;;3.12;86.85;94041.34;5017660;28;20282;-78
2024/02/24 07:35:35;;;;;;;3.07;1.30;;;;;;;3.34;85.95;94047.06;5009095;28;20210;-78
2024/02/24 07:38:00;;;;;;;1.33;1.23;;;;;;;3.55;84.64;94049.44;5011503;28;20210;-78
2024/02/24 07:40:26;;;;;;;2.27;1.10;;;;;;;3.33;85.82;94055.72;5006034;28;20194;-78
2024/02/24 07:42:54;;;;;;;1.70;1.03;;;;;;;3.33;85.52;94073.69;5002277;28;20660;-78
2024/02/24 07:45:20;;;;;;;2.13;0.93;;;;;;;3.51;85.00;94068.63;5020398;28;20187;-79
2024/02/24 07:47:45;;;;;;;0.77;0.77;;;;;;;3.53;83.66;94077.00;5002377;28;20216;-77
2024/02/24 07:50:10;;;;;;;1.00;0.90;;;;;;;3.63;83.31;94091.44;5022223;28;20194;-77
2024/02/24 07:52:37;;;;;;;1.20;1.10;;;;;;;3.66;83.38;94092.91;5009420;28;20182;-77
2024/02/24 07:55:02;;;;;;;1.80;0.60;;;;;;;3.47;84.18;94090.41;5013148;28;20206;-78
2024/02/24 07:57:27;;;;;;;1.07;0.97;;;;;;;3.46;84.41;94092.16;5018072;28;20348;-77
2024/02/24 07:59:54;;;;;;;0.60;0.60;;;;;;;3.66;83.67;94098.03;5017610;28;20191;-78
2024/02/24 08:02:19;;;;;;;0.67;0.53;;;;;;;3.78;83.67;94106.34;5010631;28;20266;-77
2024/02/24 08:04:44;;;;;;;0.57;0.57;;;;;;;3.80;83.53;94110.41;5016565;28;20199;-77
2024/02/24 08:07:10;;;;;;;0.83;0.70;;;;;;;3.77;83.74;94108.13;5015945;28;20880;-77
2024/02/24 08:09:35;;;;;;;0.40;0.40;;;;;;;4.38;81.00;94114.44;5015040;28;20183;-77
2024/02/24 08:12:00;;;;;;;1.00;0.67;;;;;;;4.44;80.22;94119.00;5012900;28;20187;-77
2024/02/24 08:14:26;;;;;;;0.80;0.80;;;;;;;4.79;78.43;94129.31;5015313;28;20214;-77
2024/02/24 08:16:51;;;;;;;0.60;0.60;;;;;;;5.09;77.94;94125.53;4996752;28;20197;-77
2024/02/24 08:19:16;;;;;;;0.60;0.60;;;;;;;5.48;77.13;94140.63;5014817;28;20186;-78
2024/02/24 08:21:42;;;;;;;0.70;0.60;;;;;;;5.95;75.57;94140.28;5004460;28;20198;-78
2024/02/24 08:24:07;;;;;;;0.60;0.60;;;;;;;6.04;73.93;94151.44;5019377;28;20206;-78
2024/02/24 08:26:39;;;;;;;1.10;0.70;;;;;;;6.38;73.11;94154.81;5018082;28;20272;-78
2024/02/24 08:29:09;;;;;;;1.10;0.80;;;;;;;6.36;73.40;94161.91;5014861;28;20235;-78
2024/02/24 08:31:34;;;;;;;3.17;1.63;;;;;;;6.23;73.36;94171.81;5007203;28;20189;-77
2024/02/24 08:34:00;;;;;;;2.23;1.53;;;;;;;6.07;74.22;94182.03;5006788;28;20225;-78
2024/02/24 08:36:25;;;;;;;30.83;28.43;;;;;;;5.94;74.57;94175.56;5000361;28;20191;-77
2024/02/24 08:38:50;;;;;;;8.07;5.93;;;;;;;5.73;75.82;94179.41;5003778;28;20190;-78
2024/02/24 08:41:15;;;;;;;5.47;3.00;;;;;;;5.65;76.63;94177.56;5019555;28;20226;-78
2024/02/24 08:43:41;;;;;;;2.50;2.30;;;;;;;5.68;76.90;94182.44;5004622;28;20209;-77
2024/02/24 08:46:06;;;;;;;1.70;1.60;;;;;;;5.67;77.62;94185.97;5008383;28;20199;-78
2024/02/24 08:48:32;;;;;;;1.40;1.30;;;;;;;5.58;77.35;94192.84;5016535;28;20189;-78
2024/02/24 08:50:57;;;;;;;1.60;1.20;;;;;;;5.63;77.92;94185.47;5020054;28;20268;-78
2024/02/24 08:53:22;;;;;;;1.23;0.60;;;;;;;5.81;77.94;94195.72;5002131;28;20892;-78
2024/02/24 08:55:48;;;;;;;0.50;0.50;;;;;;;5.84;77.85;94198.00;5005684;28;20694;-78
2024/02/24 08:58:13;;;;;;;0.70;0.70;;;;;;;6.25;77.13;94196.47;5009032;28;20199;-78
2024/02/24 09:00:38;;;;;;;1.23;1.00;;;;;;;6.35;76.52;94193.78;5017343;28;20278;-78
2024/02/24 09:03:04;;;;;;;1.40;1.30;;;;;;;6.10;76.92;94197.22;5016274;28;20690;-78
2024/02/24 09:05:29;;;;;;;4.40;4.10;;;;;;;6.19;76.71;94186.00;5022059;28;20733;-78
2024/02/24 09:07:54;;;;;;;1.80;1.20;;;;;;;6.24;75.50;94184.53;5020016;28;20209;-78
2024/02/24 09:10:20;;;;;;;3.93;1.73;;;;;;;6.22;76.50;94190.81;5003785;28;20218;-77
2024/02/24 09:12:45;;;;;;;1.70;1.17;;;;;;;6.08;76.97;94183.66;4998524;28;20217;-78
2024/02/24 09:15:10;;;;;;;2.73;0.87;;;;;;;5.99;76.41;94193.13;5027369;28;20234;-78
2024/02/24 09:17:36;;;;;;;0.70;0.70;;;;;;;6.12;76.50;94188.38;5025480;28;20195;-78
2024/02/24 09:20:01;;;;;;;1.90;1.30;;;;;;;5.91;77.86;94187.91;5020815;28;20190;-78
2024/02/24 09:22:27;;;;;;;1.10;1.00;;;;;;;5.81;77.19;94188.00;5016989;28;20657;-78
2024/02/24 09:24:53;;;;;;;0.90;0.73;;;;;;;5.79;76.22;94183.97;5025230;28;20265;-78
2024/02/24 09:27:18;;;;;;;0.50;0.33;;;;;;;5.72;74.93;94176.00;5018611;28;20194;-78
2024/02/24 09:29:43;;;;;;;0.87;0.60;;;;;;;6.11;74.89;94185.94;5017001;28;20614;-78
2024/02/24 09:32:09;;;;;;;1.63;1.30;;;;;;;5.97;74.39;94188.13;5020015;28;20191;-78
2024/02/24 09:34:34;;;;;;;0.70;0.50;;;;;;;6.04;73.87;94187.53;5007810;28;20229;-78
2024/02/24 09:37:03;;;;;;;0.90;0.50;;;;;;;5.88;73.68;94178.69;5002836;28;20189;-79
2024/02/24 09:39:28;;;;;;;1.50;0.40;;;;;;;5.81;74.84;94185.41;5011230;28;20324;-77
2024/02/24 09:41:58;;;;;;;0.30;0.23;;;;;;;6.11;74.22;94193.69;5019008;28;20660;-80
2024/02/24 09:44:26;;;;;;;0.30;0.30;;;;;;;5.90;72.00;94191.41;5018451;28;20277;-78
2024/02/24 09:46:51;;;;;;;0.47;0.47;;;;;;;6.13;71.40;94202.88;5016709;28;20190;-79
2024/02/24 09:49:17;;;;;;;0.70;0.70;;;;;;;6.35;69.65;94213.59;5006859;28;20190;-78
2024/02/24 09:51:45;;;;;;;1.47;0.50;;;;;;;6.46;69.79;94213.34;5020422;28;20194;-78
2024/02/24 09:54:10;;;;;;;0.57;0.57;;;;;;;6.64;68.64;94219.22;5015711;28;20226;-78
2024/02/24 09:56:36;;;;;;;3.20;1.90;;;;;;;6.76;66.03;94219.72;5014936;28;20210;-77
2024/02/24 09:59:02;;;;;;;0.60;0.50;;;;;;;6.58;64.85;94213.88;5005628;28;20187;-78
2024/02/24 10:01:27;;;;;;;0.93;0.70;;;;;;;6.70;63.16;94228.09;5020005;28;20666;-78
2024/02/24 10:03:53;;;;;;;1.50;1.23;;;;;;;6.50;64.18;94235.25;4999409;28;20278;-78
2024/02/24 10:06:18;;;;;;;0.50;0.30;;;;;;;6.83;62.94;94246.53;5019741;28;20575;-78
2024/02/24 10:08:43;;;;;;;0.47;0.40;;;;;;;6.91;61.77;94250.91;5008306;28;20193;-78
2024/02/24 10:11:11;;;;;;;1.27;0.60;;;;;;;7.13;62.63;94242.56;5022081;28;20562;-78
2024/02/24 10:13:36;;;;;;;1.63;0.67;;;;;;;6.92;60.69;94242.19;5018633;28;20206;-78
2024/02/24 10:16:03;;;;;;;2.20;0.67;;;;;;;7.15;60.51;94248.38;5023139;28;20240;-78
2024/02/24 10:18:31;;;;;;;2.20;0.80;;;;;;;7.08;58.33;94234.50;5022989;28;20189;-78
2024/02/24 10:20:56;;;;;;;1.53;0.53;;;;;;;7.48;57.74;94241.47;5016674;28;20194;-78
2024/02/24 10:23:22;;;;;;;2.20;0.90;;;;;;;7.25;58.88;94240.50;5016919;28;21875;-78
2024/02/24 10:25:47;;;;;;;0.87;0.40;;;;;;;7.38;57.71;94244.22;5022483;28;20179;-78
2024/02/24 10:28:12;;;;;;;2.33;0.43;;;;;;;6.91;56.78;94248.31;4998707;28;20257;-78
2024/02/24 10:30:39;;;;;;;1.90;0.40;;;;;;;6.86;57.37;94242.81;5000168;28;20213;-78
2024/02/24 10:33:05;;;;;;;1.33;0.53;;;;;;;6.73;57.25;94244.06;5012348;28;20205;-79
2024/02/24 10:35:30;;;;;;;0.77;0.50;;;;;;;6.89;56.81;94245.06;5020420;28;20557;-78
2024/02/24 10:37:55;;;;;;;0.63;0.60;;;;;;;6.86;56.90;94245.41;4998159;28;20183;-77
2024/02/24 10:40:22;;;;;;;0.77;0.73;;;;;;;6.94;56.72;94256.56;5011958;28;20190;-78
2024/02/24 10:42:47;;;;;;;1.70;1.10;;;;;;;7.28;56.36;94261.66;5003687;28;20189;-78
2024/02/24 10:45:13;;;;;;;1.13;0.80;;;;;;;7.24;55.77;94270.66;5016697;28;20289;-78
2024/02/24 10:47:38;;;;;;;1.50;0.47;;;;;;;7.33;54.80;94268.91;5016198;28;20205;-78
2024/02/24 10:50:05;;;;;;;1.40;1.30;;;;;;;7.59;54.11;94272.16;5023886;28;20605;-77
2024/02/24 10:52:31;;;;;;;2.43;2.10;;;;;;;8.04;53.98;94264.88;5013587;28;20187;-77
2024/02/24 10:54:57;;;;;;;1.43;0.80;;;;;;;8.01;53.36;94276.38;5022934;28;20565;-77
2024/02/24 10:57:23;;;;;;;0.50;0.40;;;;;;;7.35;52.21;94275.53;5012745;28;20245;-77
2024/02/24 10:59:49;;;;;;;1.13;0.80;;;;;;;8.20;52.77;94280.38;5000549;28;20668;-79
2024/02/24 11:02:14;;;;;;;1.00;0.90;;;;;;;8.23;51.39;94288.66;5000359;28;20218;-78
2024/02/24 11:04:40;;;;;;;1.47;0.80;;;;;;;8.23;51.98;94291.22;5011976;28;20190;-78
2024/02/24 11:07:07;;;;;;;5.27;2.13;;;;;;;7.80;50.54;94294.16;5000154;28;20216;-78
2024/02/24 11:09:35;;;;;;;1.90;0.60;;;;;;;7.84;51.47;94290.28;5016267;28;20257;-78
2024/02/24 11:12:13;;;;;;;1.57;0.53;;;;;;;7.89;52.15;94296.59;5004590;28;20624;-77
2024/02/24 11:14:46;;;;;;;3.23;0.60;;;;;;;7.63;51.87;94304.47;5021287;28;20215;-77
2024/02/24 11:17:11;;;;;;;0.40;0.40;;;;;;;7.76;51.35;94306.56;5016487;28;20195;-77
2024/02/24 11:19:46;;;;;;;1.90;0.47;;;;;;;7.48;50.49;94306.06;5009192;28;20186;-77
2024/02/24 11:22:19;;;;;;;0.87;0.40;;;;;;;7.01;52.12;94298.03;5007202;28;20186;-77
2024/02/24 11:24:45;;;;;;;0.90;0.53;;;;;;;7.36;51.89;94307.34;5014358;28;20199;-77
2024/02/24 11:27:11;;;;;;;1.60;0.43;;;;;;;7.54;51.41;94302.03;5015627;28;20191;-78
2024/02/24 11:29:37;;;;;;;1.30;0.60;;;;;;;7.82;50.76;94292.22;5006849;28;20185;-78
2024/02/24 11:32:14;;;;;;;1.23;0.60;;;;;;;7.62;50.46;94300.28;5006323;28;20205;-78
2024/02/24 11:34:43;;;;;;;1.90;0.80;;;;;;;7.72;51.45;94312.25;5015355;28;20211;-77